Aérodrome :
LOGIN :

S'inscrire | Disclaimer

   EN    FR    IT 

 










Légende :    VFR   VFR Marginal   IFR   IFR Intensif   IFR Très Intensif
Visi : 
Plafond : 
>= 8 km
>= 3000ft
5 à 8 km
1000 à 3000 ft
1500m à 5 km
500 à 1000 ft
800 à 1500m
200 à 500 ft
< 800m
< 200 ft
Symboles :   Orages  Brouillard  Fortes neiges  Fortes précipitations  Vent > 20 kt
SIGMETs :   Divers  Orages  Givrage  Turbulence  Onde Orograph.  Cendres Volcan.






- Altitude de l'aérodrome : 158 ft
- Code IATA : QAR


EHDL - Deelen Airbase

DERNIER METAR :
  • 240255Z AUTO 19003KT 120V220 2500 BR OVC004 02/01 Q1024 YLO

METARs EXPIRÉS :
  • 240225Z AUTO 21003KT 170V260 3400 BR OVC006 02/01 Q1024 YLO
  • 240155Z AUTO VRB02KT 4700 BR OVC008 02/01 Q1025 GRN
  • 240125Z AUTO VRB01KT 6000 BR OVC010 02/00 Q1025 GRN
  • 240055Z AUTO VRB01KT 7000 BR OVC010 02/00 Q1025 GRN
  • 240025Z AUTO 16003KT 140V230 6000 BR OVC010 02/01 Q1025 GRN

TAF TAF EHDL
Valide du 23 à 18h jusqu'au 24 à 06h UTC


231739Z 2318/2406 09004KT 2500 BR BKN010
TEMPO 2318/2321 1500 BR BKN005
BECMG 2320/2323 0800 FG FZFG



MET'MAP, la Météo Aéronautique d'un coup d'oeil ! - Copyright ORBIFLY Décembre 2007 - Disclaimer

ORBIFLY MET'MAP TEAM :

Programmation & Développement : Alexandra Zaïnal
Sur une idée originale de : Baudouin d'Aumeries
Assistance à la programmation : Marc-Olivier Méhu
Soutien technique & logistique : Manuel Goepfert

Contact : metmap@orbifly.com




SOURCES & CREDITS :

   NOAA